Time;durP1;ratioP1;P1;durP2;ratioP2;P2;SDS_P1;SDS_P2;PMS_P1;PMS_P2;Temp;Humidity;BMP_temperature;BMP_pressure;BME280_temperature;BME280_humidity;BME280_pressure;Samples;Min_cycle;Max_cycle;Signal;HPM_P1;HPM_P2
2022/09/09 00:02:27;;;;;;;15.25;7.07;;;;;;;;;;5005289;28;20355;-69
2022/09/09 00:05:01;;;;;;;7.85;6.32;;;;;;;;;;4987458;28;20431;-69
2022/09/09 00:07:32;;;;;;;10.75;7.18;;;;;;;;;;5005401;28;20526;-69
2022/09/09 00:10:19;;;;;;;11.40;8.18;;;;;;;;;;5007574;28;20431;-69
2022/09/09 00:12:52;;;;;;;11.65;7.78;;;;;;;;;;4985413;28;20415;-69
2022/09/09 00:15:23;;;;;;;11.57;7.28;;;;;;;;;;4985332;28;20348;-68
2022/09/09 00:18:14;;;;;;;9.80;7.40;;;;;;;;;;4967538;28;20411;-69
2022/09/09 00:20:58;;;;;;;10.32;7.10;;;;;;;;;;4967459;28;20530;-69
2022/09/09 00:23:29;;;;;;;8.00;6.43;;;;;;;;;;4986293;28;20459;-69
2022/09/09 00:26:09;;;;;;;8.40;6.22;;;;;;;;;;4985716;28;20446;-69
2022/09/09 00:28:41;;;;;;;10.75;6.63;;;;;;;;;;4985608;28;20028;-69
2022/09/09 00:31:16;;;;;;;10.38;7.40;;;;;;;;;;4967382;28;20466;-69
2022/09/09 00:33:42;;;;;;;9.30;6.63;;;;;;;;;;4967285;28;20047;-69
2022/09/09 00:36:19;;;;;;;7.75;5.70;;;;;;;;;;4985192;28;20499;-69
2022/09/09 00:38:51;;;;;;;8.48;6.80;;;;;;;;;;4959976;28;20339;-69
2022/09/09 00:41:25;;;;;;;7.00;5.45;;;;;;;;;;4967133;28;20029;-69
2022/09/09 00:44:00;;;;;;;9.35;6.07;;;;;;;;;;4984901;28;20443;-69
2022/09/09 00:46:46;;;;;;;9.77;6.18;;;;;;;;;;4967141;28;20439;-69
2022/09/09 00:49:50;;;;;;;14.23;5.95;;;;;;;;;;4967022;28;20423;-69
2022/09/09 00:52:43;;;;;;;8.45;5.97;;;;;;;;;;4980372;28;20490;-69
2022/09/09 00:55:21;;;;;;;9.15;5.95;;;;;;;;;;4934175;28;20049;-69
2022/09/09 00:57:52;;;;;;;7.22;4.95;;;;;;;;;;4985701;28;20379;-69
2022/09/09 01:00:26;;;;;;;7.22;5.20;;;;;;;;;;4983769;28;20548;-69
2022/09/09 01:03:24;;;;;;;7.05;5.82;;;;;;;;;;4993225;28;20482;-69
2022/09/09 01:05:55;;;;;;;9.35;5.55;;;;;;;;;;4966911;28;20037;-69
2022/09/09 01:08:30;;;;;;;5.47;4.63;;;;;;;;;;4984540;28;20340;-69
2022/09/09 01:10:57;;;;;;;7.82;5.00;;;;;;;;;;4991617;28;20438;-69
2022/09/09 01:13:30;;;;;;;7.45;5.63;;;;;;;;;;4986208;28;20139;-69
2022/09/09 01:15:58;;;;;;;7.72;5.30;;;;;;;;;;4986601;28;20451;-69
2022/09/09 01:18:27;;;;;;;9.20;6.30;;;;;;;;;;4986141;28;20339;-69
2022/09/09 01:21:39;;;;;;;8.98;6.18;;;;;;;;;;4986097;28;20090;-69
2022/09/09 01:24:26;;;;;;;7.82;5.00;;;;;;;;;;4998702;28;20366;-69
2022/09/09 01:26:54;;;;;;;7.38;5.57;;;;;;;;;;4982406;28;20502;-69
2022/09/09 01:29:21;;;;;;;7.03;6.00;;;;;;;;;;4982639;28;20581;-68
2022/09/09 01:31:55;;;;;;;11.68;6.57;;;;;;;;;;5003805;28;20463;-69
2022/09/09 01:34:21;;;;;;;9.95;5.50;;;;;;;;;;5004946;28;20642;-69
2022/09/09 01:36:53;;;;;;;8.82;5.95;;;;;;;;;;5003631;28;20397;-69
2022/09/09 01:39:18;;;;;;;16.15;6.80;;;;;;;;;;5003697;28;20504;-69
2022/09/09 01:41:44;;;;;;;10.13;6.63;;;;;;;;;;5004917;28;20373;-69
2022/09/09 01:44:09;;;;;;;11.13;6.10;;;;;;;;;;5003588;28;20043;-69
2022/09/09 01:46:35;;;;;;;6.50;5.15;;;;;;;;;;4985704;28;20363;-68
2022/09/09 01:49:02;;;;;;;9.32;6.03;;;;;;;;;;5004277;28;20020;-69
2022/09/09 01:51:28;;;;;;;8.68;6.45;;;;;;;;;;4985345;28;20558;-69
2022/09/09 01:53:53;;;;;;;7.65;6.20;;;;;;;;;;5003346;28;20498;-68
2022/09/09 01:56:36;;;;;;;12.02;6.43;;;;;;;;;;5003336;28;20444;-69
2022/09/09 01:59:28;;;;;;;9.35;5.90;;;;;;;;;;4985348;28;20417;-68
2022/09/09 02:01:54;;;;;;;5.63;4.82;;;;;;;;;;4974994;28;20044;-69
2022/09/09 02:04:44;;;;;;;7.65;6.40;;;;;;;;;;5003104;28;20052;-68
2022/09/09 02:07:32;;;;;;;14.52;6.55;;;;;;;;;;4986225;28;20435;-69
2022/09/09 02:10:11;;;;;;;8.98;5.78;;;;;;;;;;5003253;28;20439;-69
2022/09/09 02:12:41;;;;;;;6.80;5.38;;;;;;;;;;5003179;28;20032;-68
2022/09/09 02:15:16;;;;;;;6.63;5.40;;;;;;;;;;4985513;28;20328;-69
2022/09/09 02:17:42;;;;;;;8.20;6.25;;;;;;;;;;5004585;28;20436;-68
2022/09/09 02:20:11;;;;;;;10.18;5.13;;;;;;;;;;5003248;28;20450;-68
2022/09/09 02:22:39;;;;;;;8.05;5.97;;;;;;;;;;5003245;28;20406;-69
2022/09/09 02:25:08;;;;;;;8.33;6.17;;;;;;;;;;4984549;28;20339;-68
2022/09/09 02:27:35;;;;;;;8.00;5.25;;;;;;;;;;4984864;28;20343;-68
2022/09/09 02:30:03;;;;;;;8.35;5.38;;;;;;;;;;5003249;28;20693;-68
2022/09/09 02:32:30;;;;;;;8.70;5.75;;;;;;;;;;4984292;28;20451;-68
2022/09/09 02:35:07;;;;;;;9.57;6.28;;;;;;;;;;4984305;28;20455;-68
2022/09/09 02:37:36;;;;;;;8.77;5.43;;;;;;;;;;4984963;28;20544;-68
2022/09/09 02:40:04;;;;;;;8.00;5.30;;;;;;;;;;4984215;28;20029;-68
2022/09/09 02:42:29;;;;;;;7.55;5.32;;;;;;;;;;5002186;28;20028;-68
2022/09/09 02:44:55;;;;;;;7.68;5.13;;;;;;;;;;4984821;28;20450;-68
2022/09/09 02:47:28;;;;;;;7.78;6.20;;;;;;;;;;5003499;28;20032;-68
2022/09/09 02:50:13;;;;;;;12.02;6.88;;;;;;;;;;5001880;28;20423;-68
2022/09/09 02:52:54;;;;;;;9.35;6.20;;;;;;;;;;4984655;28;20399;-68
2022/09/09 02:55:39;;;;;;;10.45;7.55;;;;;;;;;;4983902;28;20430;-68
2022/09/09 02:58:07;;;;;;;17.40;7.60;;;;;;;;;;5001968;28;20097;-68
2022/09/09 03:00:33;;;;;;;11.07;7.38;;;;;;;;;;4984188;28;20459;-68
2022/09/09 03:02:58;;;;;;;10.32;6.53;;;;;;;;;;4984557;28;20028;-68
2022/09/09 03:05:24;;;;;;;10.20;7.20;;;;;;;;;;4983818;28;20454;-68
2022/09/09 03:07:50;;;;;;;12.48;8.10;;;;;;;;;;5001968;28;20025;-68
2022/09/09 03:10:15;;;;;;;14.38;7.20;;;;;;;;;;4983811;28;20029;-68
2022/09/09 03:12:41;;;;;;;9.85;7.18;;;;;;;;;;4983791;28;20451;-69
2022/09/09 03:15:08;;;;;;;11.27;8.02;;;;;;;;;;5001842;28;20029;-68
2022/09/09 03:17:34;;;;;;;14.07;8.70;;;;;;;;;;5001663;28;20409;-68
2022/09/09 03:20:01;;;;;;;9.85;6.72;;;;;;;;;;5001820;28;20458;-68
2022/09/09 03:22:26;;;;;;;9.27;6.85;;;;;;;;;;5001735;28;20338;-68
2022/09/09 03:24:51;;;;;;;9.27;7.10;;;;;;;;;;5005041;28;20369;-69
2022/09/09 03:27:19;;;;;;;8.57;6.55;;;;;;;;;;4987234;28;20233;-68
2022/09/09 03:29:45;;;;;;;10.45;7.25;;;;;;;;;;5004924;28;20458;-69
2022/09/09 03:32:10;;;;;;;11.82;8.02;;;;;;;;;;5005838;28;20451;-68
2022/09/09 03:34:38;;;;;;;14.80;8.05;;;;;;;;;;5005495;28;20449;-68
2022/09/09 03:37:04;;;;;;;11.57;8.50;;;;;;;;;;5005531;28;20131;-68
2022/09/09 03:39:30;;;;;;;12.75;7.80;;;;;;;;;;5006057;28;20417;-68
2022/09/09 03:41:55;;;;;;;11.20;7.20;;;;;;;;;;4986970;28;20461;-68
2022/09/09 03:44:20;;;;;;;13.75;7.47;;;;;;;;;;5005124;28;20585;-68
2022/09/09 03:46:46;;;;;;;13.57;7.07;;;;;;;;;;5004717;28;20317;-68
2022/09/09 03:49:11;;;;;;;11.35;7.45;;;;;;;;;;4986963;28;20454;-68
2022/09/09 03:51:38;;;;;;;12.77;7.88;;;;;;;;;;5006953;28;20029;-68
2022/09/09 03:54:05;;;;;;;12.60;8.80;;;;;;;;;;5004672;28;20352;-68
2022/09/09 03:56:31;;;;;;;14.45;8.80;;;;;;;;;;5005077;28;20490;-68
2022/09/09 03:58:57;;;;;;;17.20;9.05;;;;;;;;;;5004857;28;20434;-69
2022/09/09 04:01:23;;;;;;;16.48;9.88;;;;;;;;;;4987298;28;20340;-68
2022/09/09 04:03:48;;;;;;;14.20;10.00;;;;;;;;;;4986918;28;20409;-68
2022/09/09 04:06:14;;;;;;;22.83;10.75;;;;;;;;;;5004610;28;20083;-68
2022/09/09 04:08:40;;;;;;;17.70;10.85;;;;;;;;;;5004385;28;20439;-68
2022/09/09 04:11:06;;;;;;;16.13;10.07;;;;;;;;;;5004063;28;20471;-68
2022/09/09 04:13:37;;;;;;;17.60;11.20;;;;;;;;;;4986314;28;20016;-68
2022/09/09 04:16:03;;;;;;;17.67;10.13;;;;;;;;;;5006402;28;20553;-68
2022/09/09 04:18:29;;;;;;;13.63;10.15;;;;;;;;;;5004069;28;20056;-68
2022/09/09 04:20:57;;;;;;;16.17;9.93;;;;;;;;;;5004399;28;20464;-68
2022/09/09 04:23:23;;;;;;;14.02;9.48;;;;;;;;;;5004350;28;20389;-68
2022/09/09 04:25:51;;;;;;;17.20;10.75;;;;;;;;;;4986356;28;20389;-68
2022/09/09 04:28:18;;;;;;;18.90;11.48;;;;;;;;;;4986048;28;20453;-68
2022/09/09 04:30:44;;;;;;;15.25;10.50;;;;;;;;;;5005409;28;20407;-68
2022/09/09 04:33:10;;;;;;;23.05;9.27;;;;;;;;;;4986365;28;20028;-68
2022/09/09 04:35:35;;;;;;;16.88;11.18;;;;;;;;;;5003940;28;20740;-68
2022/09/09 04:38:02;;;;;;;16.50;10.02;;;;;;;;;;5003978;28;20423;-68
2022/09/09 04:40:29;;;;;;;13.45;10.18;;;;;;;;;;5005164;28;20497;-68
2022/09/09 04:42:55;;;;;;;20.13;10.38;;;;;;;;;;5005037;28;20032;-68
2022/09/09 04:45:20;;;;;;;19.60;9.48;;;;;;;;;;4985922;28;20013;-68
2022/09/09 04:47:45;;;;;;;13.82;8.65;;;;;;;;;;5003210;28;20431;-68
2022/09/09 04:50:12;;;;;;;17.20;8.77;;;;;;;;;;5003649;28;20506;-68
2022/09/09 04:52:37;;;;;;;11.85;7.60;;;;;;;;;;5004011;28;20450;-68
2022/09/09 04:55:03;;;;;;;13.75;9.63;;;;;;;;;;5005186;28;20400;-68
2022/09/09 04:57:28;;;;;;;12.95;8.90;;;;;;;;;;4986550;28;20323;-68
2022/09/09 04:59:54;;;;;;;13.13;8.40;;;;;;;;;;4986565;28;20043;-68
2022/09/09 05:02:19;;;;;;;23.35;12.85;;;;;;;;;;5004352;28;20492;-68
2022/09/09 05:04:45;;;;;;;20.92;12.60;;;;;;;;;;5004305;28;20450;-68
2022/09/09 05:07:10;;;;;;;19.73;11.65;;;;;;;;;;4986387;28;20450;-68
2022/09/09 05:09:35;;;;;;;20.98;12.55;;;;;;;;;;5004408;28;20424;-68
2022/09/09 05:12:02;;;;;;;23.45;13.57;;;;;;;;;;4971261;28;20452;-68
2022/09/09 05:14:29;;;;;;;20.20;12.82;;;;;;;;;;4984609;28;20021;-68
2022/09/09 05:16:55;;;;;;;33.35;17.08;;;;;;;;;;4984444;28;20436;-68
2022/09/09 05:19:21;;;;;;;27.70;14.45;;;;;;;;;;4966795;28;20305;-68
2022/09/09 05:21:46;;;;;;;31.15;17.15;;;;;;;;;;4983786;28;20354;-68
2022/09/09 05:24:11;;;;;;;25.67;14.82;;;;;;;;;;4982850;28;20367;-68
2022/09/09 05:26:37;;;;;;;23.45;14.32;;;;;;;;;;4965181;28;20434;-68
2022/09/09 05:29:02;;;;;;;22.85;14.63;;;;;;;;;;4983785;28;20372;-68
2022/09/09 05:31:30;;;;;;;22.20;15.00;;;;;;;;;;4966017;28;20444;-68
2022/09/09 05:33:55;;;;;;;28.45;16.60;;;;;;;;;;4966339;28;20437;-68
2022/09/09 05:36:21;;;;;;;24.65;14.25;;;;;;;;;;4966018;28;20364;-68
2022/09/09 05:38:47;;;;;;;27.15;15.10;;;;;;;;;;4966343;28;20455;-68
2022/09/09 05:41:15;;;;;;;30.10;16.90;;;;;;;;;;4984674;28;20500;-68
2022/09/09 05:43:41;;;;;;;20.73;13.03;;;;;;;;;;4966050;28;20341;-68
2022/09/09 05:46:09;;;;;;;33.38;17.17;;;;;;;;;;4965722;28;20466;-68
2022/09/09 05:48:39;;;;;;;30.83;16.10;;;;;;;;;;4965785;28;20347;-68
2022/09/09 05:51:07;;;;;;;34.55;17.58;;;;;;;;;;4966643;28;20033;-68
2022/09/09 05:53:33;;;;;;;24.77;16.67;;;;;;;;;;4984722;28;20354;-68
2022/09/09 05:56:07;;;;;;;28.65;17.92;;;;;;;;;;4983454;28;20033;-68
2022/09/09 05:58:33;;;;;;;27.45;16.63;;;;;;;;;;4965861;28;20056;-70
2022/09/09 06:01:05;;;;;;;28.27;16.58;;;;;;;;;;4983725;28;20435;-68
2022/09/09 06:03:30;;;;;;;32.63;16.60;;;;;;;;;;4985021;28;20637;-68
2022/09/09 06:06:01;;;;;;;25.90;15.15;;;;;;;;;;4965920;28;20428;-68
2022/09/09 06:08:26;;;;;;;28.08;17.10;;;;;;;;;;4965442;28;20432;-68
2022/09/09 06:10:52;;;;;;;28.55;17.58;;;;;;;;;;4965355;28;20518;-68
2022/09/09 06:13:17;;;;;;;24.10;14.82;;;;;;;;;;4983300;28;20363;-68
2022/09/09 06:15:52;;;;;;;32.67;16.83;;;;;;;;;;4965242;28;20422;-68
2022/09/09 06:18:18;;;;;;;29.77;15.75;;;;;;;;;;4965196;28;20458;-68
2022/09/09 06:20:56;;;;;;;28.35;15.43;;;;;;;;;;4983973;28;20411;-68
2022/09/09 06:23:22;;;;;;;37.17;17.02;;;;;;;;;;4965329;28;20356;-68
2022/09/09 06:25:48;;;;;;;27.05;15.65;;;;;;;;;;4983337;28;20426;-68
2022/09/09 06:28:14;;;;;;;25.88;14.40;;;;;;;;;;4983276;28;20451;-68
2022/09/09 06:30:41;;;;;;;29.27;16.20;;;;;;;;;;4984943;28;20698;-68
2022/09/09 06:33:06;;;;;;;27.35;16.55;;;;;;;;;;4983348;28;20398;-68
2022/09/09 06:35:31;;;;;;;27.08;13.98;;;;;;;;;;4984311;28;20387;-68
2022/09/09 06:37:58;;;;;;;32.70;14.23;;;;;;;;;;4983123;28;20458;-68
2022/09/09 06:40:24;;;;;;;33.22;15.10;;;;;;;;;;4983511;28;20439;-68
2022/09/09 06:42:49;;;;;;;28.67;14.07;;;;;;;;;;4983986;28;20424;-68
2022/09/09 06:45:15;;;;;;;24.70;13.30;;;;;;;;;;4984221;28;20439;-68
2022/09/09 06:47:40;;;;;;;26.85;14.82;;;;;;;;;;4984026;28;20448;-68
2022/09/09 06:50:07;;;;;;;33.45;15.05;;;;;;;;;;4982886;28;20095;-68
2022/09/09 06:52:32;;;;;;;21.92;12.93;;;;;;;;;;4965687;28;20047;-68
2022/09/09 06:54:58;;;;;;;26.65;13.63;;;;;;;;;;4982750;28;20024;-68
2022/09/09 06:57:23;;;;;;;31.67;14.13;;;;;;;;;;4983096;28;20427;-69
2022/09/09 06:59:49;;;;;;;18.55;11.20;;;;;;;;;;4987052;28;20323;-69
2022/09/09 07:02:14;;;;;;;18.02;11.40;;;;;;;;;;4986682;28;20534;-69
2022/09/09 07:04:40;;;;;;;20.95;11.98;;;;;;;;;;4986868;28;20439;-69
2022/09/09 07:07:05;;;;;;;27.67;11.73;;;;;;;;;;4988920;28;20489;-69
2022/09/09 07:09:31;;;;;;;18.98;9.60;;;;;;;;;;4986585;28;20427;-69
2022/09/09 07:11:59;;;;;;;13.60;8.10;;;;;;;;;;5000505;28;20386;-69
2022/09/09 07:14:24;;;;;;;11.50;7.35;;;;;;;;;;4989037;28;20071;-69
2022/09/09 07:16:50;;;;;;;17.85;8.52;;;;;;;;;;4989502;28;20119;-69
2022/09/09 07:19:15;;;;;;;16.98;8.85;;;;;;;;;;5006386;28;20351;-69
2022/09/09 07:21:41;;;;;;;12.10;8.18;;;;;;;;;;5006493;28;20127;-69
2022/09/09 07:24:07;;;;;;;13.60;8.68;;;;;;;;;;5006515;28;20347;-69
2022/09/09 07:26:33;;;;;;;19.30;8.88;;;;;;;;;;5008576;28;20135;-69
2022/09/09 07:28:58;;;;;;;22.60;8.63;;;;;;;;;;4988461;28;20342;-69
2022/09/09 07:31:32;;;;;;;14.98;8.07;;;;;;;;;;5006719;28;20036;-69
2022/09/09 07:33:59;;;;;;;12.60;7.80;;;;;;;;;;5007436;28;20451;-68
2022/09/09 07:36:46;;;;;;;14.63;8.43;;;;;;;;;;4988213;28;20139;-68
2022/09/09 07:39:12;;;;;;;13.18;8.05;;;;;;;;;;5006065;28;20024;-69
2022/09/09 07:41:56;;;;;;;13.10;7.80;;;;;;;;;;4987490;28;20418;-68
2022/09/09 07:44:24;;;;;;;14.35;7.65;;;;;;;;;;5004973;28;20504;-68
2022/09/09 07:46:49;;;;;;;16.45;8.68;;;;;;;;;;4970096;28;20565;-68
2022/09/09 07:49:15;;;;;;;47.50;21.08;;;;;;;;;;4986857;28;20459;-68
2022/09/09 07:51:43;;;;;;;14.45;7.78;;;;;;;;;;5004842;28;20425;-69
2022/09/09 07:54:11;;;;;;;15.38;6.93;;;;;;;;;;4986851;28;20090;-68
2022/09/09 07:56:37;;;;;;;33.67;14.82;;;;;;;;;;5006841;28;20439;-68
2022/09/09 07:59:04;;;;;;;38.95;12.60;;;;;;;;;;5004536;28;20366;-68
2022/09/09 08:01:32;;;;;;;18.83;9.20;;;;;;;;;;4986513;28;20405;-68
2022/09/09 08:04:03;;;;;;;12.98;5.88;;;;;;;;;;4986425;28;20416;-68
2022/09/09 08:06:32;;;;;;;27.95;12.57;;;;;;;;;;4986499;28;20481;-68
2022/09/09 08:08:58;;;;;;;10.10;6.00;;;;;;;;;;4986803;28;20371;-68
2022/09/09 08:11:25;;;;;;;9.00;5.93;;;;;;;;;;4976147;28;20049;-68
2022/09/09 08:13:51;;;;;;;34.97;13.65;;;;;;;;;;4966970;28;20448;-68
2022/09/09 08:16:22;;;;;;;113.78;45.10;;;;;;;;;;4966745;28;20485;-68
2022/09/09 08:18:49;;;;;;;36.30;15.07;;;;;;;;;;4966937;28;20708;-68
2022/09/09 08:21:17;;;;;;;15.00;6.88;;;;;;;;;;4950081;28;20367;-68
2022/09/09 08:23:45;;;;;;;15.88;6.00;;;;;;;;;;4966517;28;20487;-69
2022/09/09 08:26:23;;;;;;;10.60;5.83;;;;;;;;;;4984278;28;20107;-68
2022/09/09 08:28:53;;;;;;;16.20;7.95;;;;;;;;;;4966366;28;20638;-68
2022/09/09 08:31:24;;;;;;;63.05;21.30;;;;;;;;;;4966065;28;20344;-68
2022/09/09 08:33:50;;;;;;;86.97;27.48;;;;;;;;;;4983876;28;20527;-68
2022/09/09 08:36:18;;;;;;;23.25;9.15;;;;;;;;;;4967173;28;20351;-68
2022/09/09 08:38:43;;;;;;;13.48;6.50;;;;;;;;;;4966124;28;20317;-69
2022/09/09 08:41:27;;;;;;;18.80;8.43;;;;;;;;;;4966321;28;20338;-68
2022/09/09 08:44:02;;;;;;;19.02;9.00;;;;;;;;;;4984782;28;20351;-68
2022/09/09 08:46:36;;;;;;;84.78;31.80;;;;;;;;;;4966310;28;20454;-68
2022/09/09 08:49:16;;;;;;;46.22;20.38;;;;;;;;;;4966738;28;20313;-68
2022/09/09 08:51:41;;;;;;;34.80;13.40;;;;;;;;;;4965582;28;20333;-68
2022/09/09 08:54:08;;;;;;;34.50;14.60;;;;;;;;;;4983949;28;20383;-68
2022/09/09 08:56:34;;;;;;;24.83;10.07;;;;;;;;;;4966083;28;20349;-68
2022/09/09 08:59:03;;;;;;;21.15;8.30;;;;;;;;;;4966130;28;20359;-68
2022/09/09 09:01:39;;;;;;;16.05;8.52;;;;;;;;;;4965645;28;20351;-68
2022/09/09 09:04:29;;;;;;;23.48;8.88;;;;;;;;;;4983370;28;20344;-68
2022/09/09 09:07:07;;;;;;;18.33;8.55;;;;;;;;;;4983876;28;20087;-68
2022/09/09 09:09:58;;;;;;;27.52;8.82;;;;;;;;;;4983251;28;20343;-68
2022/09/09 09:12:26;;;;;;;21.83;8.55;;;;;;;;;;5000540;28;20356;-68
2022/09/09 09:14:51;;;;;;;20.85;7.88;;;;;;;;;;4985086;28;20431;-68
2022/09/09 09:17:21;;;;;;;14.43;5.82;;;;;;;;;;5002860;28;20455;-68
2022/09/09 09:19:48;;;;;;;18.75;8.02;;;;;;;;;;4985596;28;20321;-68
2022/09/09 09:22:26;;;;;;;22.65;7.43;;;;;;;;;;5002150;28;20032;-67
2022/09/09 09:24:54;;;;;;;19.55;7.63;;;;;;;;;;4985627;28;20450;-68
2022/09/09 09:27:43;;;;;;;19.65;8.43;;;;;;;;;;5002389;28;20443;-68
2022/09/09 09:30:18;;;;;;;15.70;7.80;;;;;;;;;;4984606;28;20490;-67
2022/09/09 09:32:51;;;;;;;14.38;7.30;;;;;;;;;;5002717;28;20420;-67
2022/09/09 09:35:17;;;;;;;16.63;6.63;;;;;;;;;;4985211;28;20520;-68
2022/09/09 09:37:43;;;;;;;14.30;6.57;;;;;;;;;;5002799;28;20526;-67
2022/09/09 09:40:10;;;;;;;13.50;6.78;;;;;;;;;;5002647;28;20478;-67
2022/09/09 09:42:35;;;;;;;14.75;6.72;;;;;;;;;;5004341;28;20455;-67
2022/09/09 09:45:13;;;;;;;21.75;9.73;;;;;;;;;;5003524;28;20387;-67
2022/09/09 09:47:40;;;;;;;13.95;6.68;;;;;;;;;;4985396;28;20465;-67
2022/09/09 09:50:17;;;;;;;19.88;7.50;;;;;;;;;;5003838;28;20522;-67
2022/09/09 09:52:44;;;;;;;15.40;6.60;;;;;;;;;;5003865;28;20474;-67
2022/09/09 09:55:13;;;;;;;10.95;4.72;;;;;;;;;;4986415;28;20427;-66
2022/09/09 09:57:39;;;;;;;11.43;5.88;;;;;;;;;;4985373;28;20423;-67
2022/09/09 10:00:17;;;;;;;15.98;6.82;;;;;;;;;;5003275;28;20351;-67
2022/09/09 10:02:44;;;;;;;15.10;5.93;;;;;;;;;;5003315;28;20420;-67
2022/09/09 10:05:12;;;;;;;13.73;5.95;;;;;;;;;;5003339;28;20447;-67
2022/09/09 10:07:38;;;;;;;11.43;5.60;;;;;;;;;;5003152;28;20345;-67
2022/09/09 10:10:04;;;;;;;14.75;6.20;;;;;;;;;;4985290;28;20351;-67
2022/09/09 10:12:43;;;;;;;18.27;5.88;;;;;;;;;;4984714;28;20336;-67
2022/09/09 10:15:24;;;;;;;10.55;5.35;;;;;;;;;;5004125;28;20398;-67
2022/09/09 10:18:44;;;;;;;11.50;5.10;;;;;;;;;;5005073;28;20040;-67
2022/09/09 10:21:25;;;;;;;9.10;4.57;;;;;;;;;;4922285;28;20034;-67
2022/09/09 10:23:53;;;;;;;12.30;4.70;;;;;;;;;;4997358;28;20361;-68
2022/09/09 10:26:46;;;;;;;6.55;3.70;;;;;;;;;;5003155;28;20325;-66
2022/09/09 10:29:32;;;;;;;12.25;4.38;;;;;;;;;;5003666;28;20549;-67
2022/09/09 10:32:10;;;;;;;11.48;4.72;;;;;;;;;;4968552;28;20454;-67
2022/09/09 10:34:41;;;;;;;9.80;4.00;;;;;;;;;;5007996;28;20370;-67
2022/09/09 10:37:23;;;;;;;11.18;4.22;;;;;;;;;;5007728;28;20457;-66
2022/09/09 10:39:58;;;;;;;8.93;4.25;;;;;;;;;;5007197;28;20077;-67
2022/09/09 10:42:30;;;;;;;9.73;4.05;;;;;;;;;;4989835;28;20482;-67
2022/09/09 10:45:08;;;;;;;10.68;4.28;;;;;;;;;;5006693;28;20643;-67
2022/09/09 10:47:53;;;;;;;6.70;3.05;;;;;;;;;;5006692;28;20530;-67
2022/09/09 10:50:42;;;;;;;6.38;3.75;;;;;;;;;;5006710;28;20024;-66
2022/09/09 10:53:12;;;;;;;10.35;3.60;;;;;;;;;;4988571;28;20470;-67
2022/09/09 10:55:43;;;;;;;6.70;3.25;;;;;;;;;;5006724;28;20431;-67
2022/09/09 10:58:15;;;;;;;7.53;3.10;;;;;;;;;;5006536;28;20379;-67
2022/09/09 11:00:42;;;;;;;10.23;3.75;;;;;;;;;;5007103;28;20406;-67
2022/09/09 11:03:33;;;;;;;8.55;3.35;;;;;;;;;;4988216;28;20355;-67
2022/09/09 11:06:04;;;;;;;9.13;3.42;;;;;;;;;;5006295;28;20431;-67
2022/09/09 11:08:30;;;;;;;5.82;3.10;;;;;;;;;;5006393;28;20392;-67
2022/09/09 11:11:19;;;;;;;8.90;4.18;;;;;;;;;;4967793;28;20041;-66
2022/09/09 11:13:54;;;;;;;11.15;3.40;;;;;;;;;;4968769;28;20428;-67
2022/09/09 11:16:44;;;;;;;11.40;3.35;;;;;;;;;;4968879;28;20467;-67
2022/09/09 11:19:31;;;;;;;9.07;4.30;;;;;;;;;;4988210;28;20328;-67
2022/09/09 11:21:58;;;;;;;14.35;5.30;;;;;;;;;;4968747;28;20451;-67
2022/09/09 11:25:01;;;;;;;22.55;4.50;;;;;;;;;;4968539;28;20435;-67
2022/09/09 11:27:37;;;;;;;17.63;7.93;;;;;;;;;;4889987;28;20408;-66
2022/09/09 11:30:06;;;;;;;12.52;4.47;;;;;;;;;;4975778;28;20064;-69
2022/09/09 11:33:04;;;;;;;13.60;4.82;;;;;;;;;;4986452;28;20391;-67
2022/09/09 11:35:51;;;;;;;18.83;6.80;;;;;;;;;;4953486;28;20036;-67
2022/09/09 11:38:38;;;;;;;16.80;5.80;;;;;;;;;;4986183;28;20033;-67
2022/09/09 11:41:06;;;;;;;17.45;5.32;;;;;;;;;;4985969;28;20530;-67
2022/09/09 11:43:46;;;;;;;13.60;5.20;;;;;;;;;;4986498;28;20024;-67
2022/09/09 11:46:15;;;;;;;15.35;6.38;;;;;;;;;;4967296;28;20379;-67
2022/09/09 11:48:48;;;;;;;15.20;6.35;;;;;;;;;;4968045;28;20632;-67
2022/09/09 11:51:35;;;;;;;16.13;5.60;;;;;;;;;;4985542;28;20391;-67
2022/09/09 11:54:02;;;;;;;14.85;6.05;;;;;;;;;;4967836;28;20679;-67
2022/09/09 11:56:44;;;;;;;18.23;5.55;;;;;;;;;;4985926;28;20213;-67
2022/09/09 11:59:24;;;;;;;14.10;4.80;;;;;;;;;;4985559;28;20494;-67
2022/09/09 12:02:14;;;;;;;15.65;5.20;;;;;;;;;;4967653;28;20420;-67
2022/09/09 12:04:54;;;;;;;13.15;5.22;;;;;;;;;;4986367;28;20459;-67
2022/09/09 12:07:33;;;;;;;16.08;4.72;;;;;;;;;;4985878;28;20462;-67
2022/09/09 12:10:03;;;;;;;9.60;4.20;;;;;;;;;;4985270;28;20178;-67
2022/09/09 12:12:30;;;;;;;9.75;4.72;;;;;;;;;;5001032;28;20477;-67
2022/09/09 12:15:21;;;;;;;13.40;4.60;;;;;;;;;;5005198;28;20407;-67
2022/09/09 12:17:50;;;;;;;14.82;4.65;;;;;;;;;;4994119;28;20532;-67
2022/09/09 12:20:20;;;;;;;11.45;4.30;;;;;;;;;;4988112;28;20083;-67
2022/09/09 12:23:09;;;;;;;13.20;5.05;;;;;;;;;;5005003;28;20422;-67
2022/09/09 12:25:44;;;;;;;11.63;4.43;;;;;;;;;;5005918;28;20088;-67
2022/09/09 12:28:15;;;;;;;9.10;3.85;;;;;;;;;;5004962;28;20501;-67
2022/09/09 12:30:53;;;;;;;10.15;3.60;;;;;;;;;;4986500;28;20463;-67
2022/09/09 12:33:19;;;;;;;21.27;5.53;;;;;;;;;;5005695;28;20447;-67
2022/09/09 12:35:49;;;;;;;9.98;4.65;;;;;;;;;;4986659;28;20412;-67
2022/09/09 12:38:22;;;;;;;14.90;3.78;;;;;;;;;;5005030;28;20040;-66
2022/09/09 12:40:56;;;;;;;10.68;3.83;;;;;;;;;;5004370;28;20471;-67
2022/09/09 12:43:23;;;;;;;8.75;4.10;;;;;;;;;;5004555;28;20435;-67
2022/09/09 12:45:57;;;;;;;10.40;4.32;;;;;;;;;;4986569;28;20504;-67
2022/09/09 12:48:26;;;;;;;10.10;3.50;;;;;;;;;;5004359;28;20450;-67
2022/09/09 12:50:52;;;;;;;9.80;4.15;;;;;;;;;;4986180;28;20482;-67
2022/09/09 12:53:25;;;;;;;10.23;4.07;;;;;;;;;;4981105;28;20479;-67
2022/09/09 12:56:19;;;;;;;10.35;3.90;;;;;;;;;;4986707;28;20430;-67
2022/09/09 12:58:47;;;;;;;11.23;4.15;;;;;;;;;;4994052;28;20470;-67
2022/09/09 13:01:21;;;;;;;13.20;3.20;;;;;;;;;;4986335;28;20021;-67
2022/09/09 13:03:47;;;;;;;8.07;3.03;;;;;;;;;;5005750;28;20335;-67
2022/09/09 13:06:19;;;;;;;7.30;2.80;;;;;;;;;;5003860;28;20434;-67
2022/09/09 13:08:44;;;;;;;9.68;3.35;;;;;;;;;;5002858;28;20458;-67
2022/09/09 13:11:14;;;;;;;13.98;2.92;;;;;;;;;;5002733;28;20395;-67
2022/09/09 13:13:40;;;;;;;6.68;3.15;;;;;;;;;;4985878;28;20093;-67
2022/09/09 13:16:20;;;;;;;5.35;2.60;;;;;;;;;;4986641;28;20399;-67
2022/09/09 13:18:46;;;;;;;7.80;3.30;;;;;;;;;;4985948;28;20356;-67
2022/09/09 13:21:12;;;;;;;7.97;2.92;;;;;;;;;;4986024;28;20425;-67
2022/09/09 13:23:37;;;;;;;9.15;2.83;;;;;;;;;;4985803;28;20343;-67
2022/09/09 13:26:05;;;;;;;8.02;3.13;;;;;;;;;;5003693;28;20417;-68
2022/09/09 13:28:31;;;;;;;10.00;2.60;;;;;;;;;;5004135;28;20489;-67
2022/09/09 13:31:01;;;;;;;5.35;2.40;;;;;;;;;;5004020;28;20443;-67
2022/09/09 13:33:34;;;;;;;8.18;2.35;;;;;;;;;;5003746;28;20386;-67
2022/09/09 13:36:03;;;;;;;8.95;3.28;;;;;;;;;;5003941;28;20497;-67
2022/09/09 13:38:32;;;;;;;9.38;2.97;;;;;;;;;;4985739;28;20028;-66
2022/09/09 13:41:06;;;;;;;6.93;2.65;;;;;;;;;;4985594;28;20508;-67
2022/09/09 13:43:37;;;;;;;8.07;3.20;;;;;;;;;;4985724;28;20358;-67
2022/09/09 13:46:23;;;;;;;11.05;3.38;;;;;;;;;;4985514;28;20452;-67
2022/09/09 13:48:58;;;;;;;8.13;3.47;;;;;;;;;;5004160;28;20036;-66
2022/09/09 13:51:35;;;;;;;8.52;3.10;;;;;;;;;;5003376;28;20455;-67
2022/09/09 13:54:00;;;;;;;10.32;3.08;;;;;;;;;;5003369;28;20455;-67
2022/09/09 13:56:26;;;;;;;10.10;3.42;;;;;;;;;;5003591;28;20427;-67
2022/09/09 13:58:51;;;;;;;10.38;3.65;;;;;;;;;;5003485;28;20347;-67
2022/09/09 14:01:17;;;;;;;10.60;4.25;;;;;;;;;;5002830;28;20427;-67
2022/09/09 14:03:43;;;;;;;10.65;3.95;;;;;;;;;;5002028;28;20490;-67
2022/09/09 14:06:09;;;;;;;14.85;4.30;;;;;;;;;;5001772;28;20450;-66
2022/09/09 14:08:36;;;;;;;13.18;4.80;;;;;;;;;;4984608;28;20447;-67
2022/09/09 14:11:03;;;;;;;20.35;4.65;;;;;;;;;;5001421;28;20540;-67
2022/09/09 14:13:29;;;;;;;20.83;6.55;;;;;;;;;;4984124;28;20463;-67
2022/09/09 14:15:54;;;;;;;12.20;4.57;;;;;;;;;;5002831;28;20427;-67
2022/09/09 14:18:19;;;;;;;12.77;5.53;;;;;;;;;;5001693;28;20745;-67
2022/09/09 14:20:45;;;;;;;14.27;5.45;;;;;;;;;;5001616;28;20730;-67
2022/09/09 14:23:11;;;;;;;12.68;5.05;;;;;;;;;;5003557;28;20378;-67
2022/09/09 14:25:39;;;;;;;20.00;6.57;;;;;;;;;;5001796;28;20111;-67
2022/09/09 14:28:05;;;;;;;12.50;6.13;;;;;;;;;;5001781;28;20118;-67
2022/09/09 14:30:30;;;;;;;20.55;6.40;;;;;;;;;;5001471;28;20534;-67
2022/09/09 14:32:55;;;;;;;12.38;6.03;;;;;;;;;;5002521;28;20478;-67
2022/09/09 14:35:22;;;;;;;18.10;5.75;;;;;;;;;;5001579;28;20565;-67
2022/09/09 14:37:48;;;;;;;18.15;5.82;;;;;;;;;;5001662;28;20467;-67
2022/09/09 14:40:14;;;;;;;18.85;7.50;;;;;;;;;;5002093;28;20459;-67
2022/09/09 14:42:40;;;;;;;24.23;6.72;;;;;;;;;;5001384;28;20492;-67
2022/09/09 14:45:06;;;;;;;17.23;5.70;;;;;;;;;;5002137;28;20455;-67
2022/09/09 14:47:32;;;;;;;17.98;6.22;;;;;;;;;;5002361;28;20470;-67
2022/09/09 14:49:57;;;;;;;12.57;5.55;;;;;;;;;;5001477;28;20431;-67
2022/09/09 14:52:22;;;;;;;14.00;5.80;;;;;;;;;;5001342;28;20367;-67
2022/09/09 14:54:48;;;;;;;18.05;6.45;;;;;;;;;;5001375;28;20321;-67